Time;durP1;ratioP1;P1;durP2;ratioP2;P2;SDS_P1;SDS_P2;PMS_P1;PMS_P2;Temp;Humidity;BMP_temperature;BMP_pressure;BME280_temperature;BME280_humidity;BME280_pressure;Samples;Min_cycle;Max_cycle;Signal;HPM_P1;HPM_P2
2023/05/10 00:00:53;;;;;;;;;;;;;;;12.28;100.00;100832.53;4985741;28;19937;-72
2023/05/10 00:03:18;;;;;;;;;;;;;;;12.25;100.00;100835.47;4981137;28;20333;-72
2023/05/10 00:05:44;;;;;;;;;;;;;;;12.24;100.00;100834.63;4982736;28;20483;-73
2023/05/10 00:08:09;;;;;;;;;;;;;;;12.21;100.00;100832.22;4979260;28;19922;-72
2023/05/10 00:10:35;;;;;;;;;;;;;;;12.19;100.00;100836.00;4958377;28;19933;-72
2023/05/10 00:13:00;;;;;;;;;;;;;;;12.25;100.00;100830.97;4981253;28;19922;-72
2023/05/10 00:15:25;;;;;;;;;;;;;;;12.24;100.00;100823.88;4983071;28;20044;-72
2023/05/10 00:17:50;;;;;;;;;;;;;;;12.22;100.00;100820.44;4978182;28;20016;-72
2023/05/10 00:20:15;;;;;;;;;;;;;;;12.24;100.00;100823.00;4967013;28;19987;-72
2023/05/10 00:22:41;;;;;;;;;;;;;;;12.24;100.00;100828.38;4967424;28;19926;-72
2023/05/10 00:25:06;;;;;;;;;;;;;;;12.23;100.00;100830.25;4982121;28;19921;-71
2023/05/10 00:27:31;;;;;;;;;;;;;;;12.11;100.00;100831.25;4980683;28;19928;-71
2023/05/10 00:29:57;;;;;;;;;;;;;;;12.10;100.00;100825.03;4983757;28;19921;-72
2023/05/10 00:32:22;;;;;;;;;;;;;;;12.13;100.00;100829.31;4983738;28;19965;-71
2023/05/10 00:34:47;;;;;;;;;;;;;;;12.21;100.00;100823.25;4986228;28;19937;-72
2023/05/10 00:37:13;;;;;;;;;;;;;;;12.26;100.00;100821.91;4963969;28;19945;-71
2023/05/10 00:39:38;;;;;;;;;;;;;;;12.24;100.00;100823.88;4982705;28;19921;-72
2023/05/10 00:42:04;;;;;;;;;;;;;;;12.28;100.00;100825.31;4961933;28;19949;-73
2023/05/10 00:44:30;;;;;;;;;;;;;;;12.26;100.00;100827.28;4965084;28;19922;-72
2023/05/10 00:46:56;;;;;;;;;;;;;;;12.21;100.00;100824.13;4981394;28;19921;-72
2023/05/10 00:49:21;;;;;;;;;;;;;;;12.27;100.00;100820.06;4966639;28;19922;-71
2023/05/10 00:51:46;;;;;;;;;;;;;;;12.28;100.00;100817.25;4961369;28;19964;-72
2023/05/10 00:54:11;;;;;;;;;;;;;;;12.21;100.00;100817.88;4984790;28;20016;-72
2023/05/10 00:56:36;;;;;;;;;;;;;;;12.13;100.00;100815.84;4981880;28;19922;-72
2023/05/10 00:59:02;;;;;;;;;;;;;;;12.16;100.00;100815.59;4978496;28;19921;-73
2023/05/10 01:01:27;;;;;;;;;;;;;;;12.21;100.00;100832.22;4962325;28;20000;-72
2023/05/10 01:03:52;;;;;;;;;;;;;;;12.22;100.00;100823.16;4961035;28;19957;-71
2023/05/10 01:06:18;;;;;;;;;;;;;;;12.27;100.00;100822.75;4979648;28;19922;-72
2023/05/10 01:08:43;;;;;;;;;;;;;;;12.21;100.00;100818.75;4962893;28;19928;-71
2023/05/10 01:11:08;;;;;;;;;;;;;;;12.23;100.00;100821.28;4977224;28;19922;-72
2023/05/10 01:13:34;;;;;;;;;;;;;;;12.20;100.00;100822.41;4978788;28;20296;-71
2023/05/10 01:16:02;;;;;;;;;;;;;;;12.19;100.00;100823.41;4980834;28;20215;-72
2023/05/10 01:18:27;;;;;;;;;;;;;;;12.10;100.00;100816.97;4979033;28;19922;-71
2023/05/10 01:20:56;;;;;;;;;;;;;;;12.08;100.00;100821.63;4979700;28;19921;-72
2023/05/10 01:23:28;;;;;;;;;;;;;;;11.97;100.00;100825.19;4982021;28;20254;-71
2023/05/10 01:25:53;;;;;;;;;;;;;;;12.03;100.00;100821.16;4981472;28;20432;-71
2023/05/10 01:28:27;;;;;;;;;;;;;;;12.07;100.00;100828.00;4984584;28;20012;-72
2023/05/10 01:31:05;;;;;;;;;;;;;;;12.06;100.00;100828.97;4983343;28;19922;-70
2023/05/10 01:33:40;;;;;;;;;;;;;;;11.99;100.00;100827.78;4975777;28;19968;-72
2023/05/10 01:36:08;;;;;;;;;;;;;;;11.98;100.00;100828.72;4980407;28;20040;-72
2023/05/10 01:38:37;;;;;;;;;;;;;;;12.00;100.00;100830.34;4981034;28;19922;-72
2023/05/10 01:41:16;;;;;;;;;;;;;;;11.89;100.00;100816.06;4976863;28;19973;-72
2023/05/10 01:43:53;;;;;;;;;;;;;;;12.00;100.00;100824.09;4954535;28;20426;-72
2023/05/10 01:46:20;;;;;;;;;;;;;;;11.85;100.00;100824.38;4978262;28;19929;-71
2023/05/10 01:48:51;;;;;;;;;;;;;;;11.85;100.00;100828.91;4958636;28;19929;-71
2023/05/10 01:51:18;;;;;;;;;;;;;;;11.95;100.00;100829.84;4978845;28;19921;-71
2023/05/10 01:53:44;;;;;;;;;;;;;;;11.87;100.00;100826.09;4978937;28;20288;-71
2023/05/10 01:56:10;;;;;;;;;;;;;;;11.87;100.00;100829.63;4979514;28;19975;-72
2023/05/10 01:58:35;;;;;;;;;;;;;;;11.93;100.00;100828.25;4962439;28;20038;-72
2023/05/10 02:01:01;;;;;;;;;;;;;;;11.88;100.00;100827.81;4980711;28;19921;-73
2023/05/10 02:03:27;;;;;;;;;;;;;;;11.82;100.00;100824.66;4959533;28;19932;-72
2023/05/10 02:05:52;;;;;;;;;;;;;;;11.84;100.00;100828.06;4978305;28;20607;-72
2023/05/10 02:08:17;;;;;;;;;;;;;;;11.81;100.00;100836.38;4977409;28;19926;-72
2023/05/10 02:10:42;;;;;;;;;;;;;;;11.88;100.00;100834.03;4957464;28;19961;-72
2023/05/10 02:13:08;;;;;;;;;;;;;;;11.90;100.00;100842.00;4960572;28;20221;-72
2023/05/10 02:15:33;;;;;;;;;;;;;;;11.84;100.00;100836.13;4963915;28;20012;-74
2023/05/10 02:17:58;;;;;;;;;;;;;;;11.85;100.00;100835.16;4961428;28;20443;-71
2023/05/10 02:20:24;;;;;;;;;;;;;;;11.79;100.00;100835.66;4965642;28;20276;-72
2023/05/10 02:22:49;;;;;;;;;;;;;;;11.77;100.00;100851.06;4965832;28;20545;-72
2023/05/10 02:25:15;;;;;;;;;;;;;;;11.69;100.00;100851.69;4978721;28;20343;-73
2023/05/10 02:27:40;;;;;;;;;;;;;;;11.70;100.00;100855.22;4960673;28;20051;-72
2023/05/10 02:30:06;;;;;;;;;;;;;;;11.63;100.00;100846.81;4962684;28;20397;-72
2023/05/10 02:32:31;;;;;;;;;;;;;;;11.68;100.00;100862.56;4964062;28;20367;-72
2023/05/10 02:34:56;;;;;;;;;;;;;;;11.70;100.00;100850.72;4979078;28;19923;-72
2023/05/10 02:37:22;;;;;;;;;;;;;;;11.72;100.00;100855.97;4978419;28;19929;-72
2023/05/10 02:39:47;;;;;;;;;;;;;;;11.73;100.00;100851.47;4961690;28;20196;-71
2023/05/10 02:42:14;;;;;;;;;;;;;;;11.77;100.00;100856.44;4959119;28;20048;-71
2023/05/10 02:44:39;;;;;;;;;;;;;;;11.80;100.00;100852.63;4964513;28;19929;-71
2023/05/10 02:47:04;;;;;;;;;;;;;;;11.82;100.00;100856.91;4983057;28;20292;-71
2023/05/10 02:49:29;;;;;;;;;;;;;;;11.82;100.00;100856.06;4981039;28;20337;-71
2023/05/10 02:51:56;;;;;;;;;;;;;;;11.88;100.00;100852.03;4982958;28;19932;-71
2023/05/10 02:54:24;;;;;;;;;;;;;;;11.84;100.00;100862.16;4984274;28;19947;-71
2023/05/10 02:57:08;;;;;;;;;;;;;;;11.82;100.00;100846.16;4972862;28;19922;-72
2023/05/10 02:59:33;;;;;;;;;;;;;;;11.84;100.00;100859.47;4984508;28;20289;-71
2023/05/10 03:02:00;;;;;;;;;;;;;;;11.83;100.00;100850.56;4983752;28;19926;-71
2023/05/10 03:04:25;;;;;;;;;;;;;;;11.85;100.00;100856.66;4987847;28;20286;-71
2023/05/10 03:06:50;;;;;;;;;;;;;;;11.88;100.00;100852.03;4988092;28;19921;-72
2023/05/10 03:09:15;;;;;;;;;;;;;;;11.85;100.00;100850.41;4977245;28;19922;-71
2023/05/10 03:11:47;;;;;;;;;;;;;;;11.89;100.00;100849.19;4984033;28;20569;-71
2023/05/10 03:14:28;;;;;;;;;;;;;;;11.97;100.00;100859.31;4983113;28;20412;-71
2023/05/10 03:17:08;;;;;;;;;;;;;;;11.89;100.00;100849.19;4978009;28;20016;-70
2023/05/10 03:19:40;;;;;;;;;;;;;;;11.80;100.00;100855.31;4979306;28;20016;-72
2023/05/10 03:22:06;;;;;;;;;;;;;;;11.79;100.00;100859.88;4963550;28;19948;-72
2023/05/10 03:24:32;;;;;;;;;;;;;;;11.91;100.00;100859.84;4966388;28;20375;-71
2023/05/10 03:26:57;;;;;;;;;;;;;;;11.95;100.00;100861.25;4981098;28;19926;-71
2023/05/10 03:29:22;;;;;;;;;;;;;;;11.99;100.00;100858.25;4963048;28;20265;-71
2023/05/10 03:31:48;;;;;;;;;;;;;;;12.00;100.00;100859.09;4969677;28;19921;-71
2023/05/10 03:34:13;;;;;;;;;;;;;;;11.95;100.00;100862.13;4987689;28;19922;-71
2023/05/10 03:36:38;;;;;;;;;;;;;;;11.96;100.00;100871.91;4967758;28;19963;-71
2023/05/10 03:39:03;;;;;;;;;;;;;;;11.97;100.00;100870.06;4992727;28;19961;-71
2023/05/10 03:41:29;;;;;;;;;;;;;;;12.02;100.00;100870.56;4966299;28;20507;-70
2023/05/10 03:43:54;;;;;;;;;;;;;;;12.01;100.00;100874.25;4966905;28;20380;-71
2023/05/10 03:46:19;;;;;;;;;;;;;;;12.06;100.00;100877.41;4985137;28;20358;-71
2023/05/10 03:48:44;;;;;;;;;;;;;;;12.08;100.00;100879.97;4968853;28;19932;-71
2023/05/10 03:51:10;;;;;;;;;;;;;;;12.09;100.00;100878.97;4965279;28;19922;-71
2023/05/10 03:53:35;;;;;;;;;;;;;;;12.06;100.00;100881.91;4982144;28;19933;-71
2023/05/10 03:56:00;;;;;;;;;;;;;;;11.98;100.00;100880.72;4982590;28;19921;-71
2023/05/10 03:58:25;;;;;;;;;;;;;;;12.02;100.00;100886.72;4989326;28;20376;-72
2023/05/10 04:00:51;;;;;;;;;;;;;;;12.05;100.00;100886.47;4980583;28;19926;-71
2023/05/10 04:03:16;;;;;;;;;;;;;;;12.05;100.00;100893.69;4980403;28;20373;-71
2023/05/10 04:05:42;;;;;;;;;;;;;;;12.06;100.00;100887.31;4981362;28;19921;-71
2023/05/10 04:08:07;;;;;;;;;;;;;;;12.08;100.00;100886.22;4982918;28;19924;-71
2023/05/10 04:10:32;;;;;;;;;;;;;;;12.09;100.00;100890.63;4974693;28;19922;-71
2023/05/10 04:12:57;;;;;;;;;;;;;;;12.08;100.00;100898.78;4982087;28;19928;-71
2023/05/10 04:15:23;;;;;;;;;;;;;;;12.07;100.00;100902.47;4981640;28;19968;-71
2023/05/10 04:17:48;;;;;;;;;;;;;;;12.11;100.00;100899.41;4980963;28;20262;-71
2023/05/10 04:20:13;;;;;;;;;;;;;;;12.14;100.00;100896.47;4982810;28;20692;-72
2023/05/10 04:22:39;;;;;;;;;;;;;;;12.13;100.00;100897.47;4982527;28;19926;-71
2023/05/10 04:25:04;;;;;;;;;;;;;;;12.17;100.00;100902.59;4981153;28;19921;-71
2023/05/10 04:27:29;;;;;;;;;;;;;;;12.16;100.00;100899.03;4977828;28;19925;-70
2023/05/10 04:29:55;;;;;;;;;;;;;;;12.13;100.00;100897.47;4975531;28;20021;-70
2023/05/10 04:32:20;;;;;;;;;;;;;;;12.15;100.00;100903.56;4978388;28;19922;-70
2023/05/10 04:34:45;;;;;;;;;;;;;;;12.11;100.00;100904.81;4978010;28;19984;-70
2023/05/10 04:37:10;;;;;;;;;;;;;;;12.10;100.00;100904.91;4985724;28;20510;-71
2023/05/10 04:39:36;;;;;;;;;;;;;;;12.11;100.00;100902.09;4980734;28;20141;-70
2023/05/10 04:42:02;;;;;;;;;;;;;;;12.09;100.00;100904.06;4962719;28;20258;-70
2023/05/10 04:44:28;;;;;;;;;;;;;;;12.05;100.00;100899.91;4966432;28;19941;-70
2023/05/10 04:46:53;;;;;;;;;;;;;;;12.11;100.00;100896.72;4987518;28;19922;-70
2023/05/10 04:49:18;;;;;;;;;;;;;;;12.13;100.00;100905.53;4984773;28;20272;-70
2023/05/10 04:51:43;;;;;;;;;;;;;;;12.17;100.00;100903.41;4988749;28;20352;-70
2023/05/10 04:54:08;;;;;;;;;;;;;;;12.17;100.00;100900.72;4987823;28;20459;-70
2023/05/10 04:56:34;;;;;;;;;;;;;;;12.05;100.00;100910.69;4989301;28;20419;-70
2023/05/10 04:58:59;;;;;;;;;;;;;;;12.06;100.00;100909.72;4970168;28;19925;-70
2023/05/10 05:01:24;;;;;;;;;;;;;;;12.10;100.00;100905.78;4985788;28;19921;-70
2023/05/10 05:03:50;;;;;;;;;;;;;;;12.11;100.00;100909.31;4982937;28;19925;-70
2023/05/10 05:06:15;;;;;;;;;;;;;;;12.07;100.00;100914.09;4989103;28;19930;-70
2023/05/10 05:08:40;;;;;;;;;;;;;;;12.10;100.00;100915.69;4987003;28;20008;-70
2023/05/10 05:11:06;;;;;;;;;;;;;;;12.13;100.00;100919.00;4983032;28;19921;-70
2023/05/10 05:13:31;;;;;;;;;;;;;;;12.12;100.00;100927.16;4982517;28;19961;-70
2023/05/10 05:15:56;;;;;;;;;;;;;;;12.15;100.00;100924.22;4983872;28;19922;-70
2023/05/10 05:18:21;;;;;;;;;;;;;;;12.03;100.00;100925.25;4983546;28;19944;-71
2023/05/10 05:20:46;;;;;;;;;;;;;;;12.02;100.00;100927.09;4987469;28;19987;-70
2023/05/10 05:23:12;;;;;;;;;;;;;;;12.04;100.00;100926.97;4987225;28;20345;-70
2023/05/10 05:25:37;;;;;;;;;;;;;;;12.09;100.00;100930.97;4993153;28;19921;-70
2023/05/10 05:28:02;;;;;;;;;;;;;;;12.05;100.00;100926.00;4987988;28;20384;-70
2023/05/10 05:30:27;;;;;;;;;;;;;;;12.09;100.00;100925.59;4988722;28;20299;-70
2023/05/10 05:32:53;;;;;;;;;;;;;;;12.02;100.00;100935.16;4986142;28;19984;-70
2023/05/10 05:35:18;;;;;;;;;;;;;;;12.06;100.00;100936.63;4988882;28;20294;-70
2023/05/10 05:37:43;;;;;;;;;;;;;;;12.03;100.00;100939.56;4985629;28;19925;-71
2023/05/10 05:40:12;;;;;;;;;;;;;;;11.97;100.00;100935.50;4990625;28;19965;-70
2023/05/10 05:42:38;;;;;;;;;;;;;;;11.94;100.00;100933.06;4976489;28;19949;-70
2023/05/10 05:45:03;;;;;;;;;;;;;;;11.98;100.00;100944.44;4976957;28;20312;-70
2023/05/10 05:47:28;;;;;;;;;;;;;;;12.09;100.00;100935.50;4980454;28;19921;-70
2023/05/10 05:49:55;;;;;;;;;;;;;;;12.04;100.00;100938.56;4977357;28;20254;-70
2023/05/10 05:52:21;;;;;;;;;;;;;;;11.99;100.00;100938.09;4977633;28;19968;-70
2023/05/10 05:54:46;;;;;;;;;;;;;;;12.03;100.00;100942.25;4982175;28;19929;-70
2023/05/10 05:57:11;;;;;;;;;;;;;;;12.02;100.00;100943.22;4982967;28;19925;-71
2023/05/10 05:59:41;;;;;;;;;;;;;;;11.94;100.00;100943.84;4979815;28;20032;-71
2023/05/10 06:02:06;;;;;;;;;;;;;;;12.09;100.00;100944.44;4977694;28;20370;-70
2023/05/10 06:04:32;;;;;;;;;;;;;;;12.11;100.00;100947.88;4981664;28;20000;-70
2023/05/10 06:06:57;;;;;;;;;;;;;;;12.15;100.00;100952.00;4980577;28;20016;-70
2023/05/10 06:09:24;;;;;;;;;;;;;;;12.12;100.00;100946.88;4978018;28;20014;-70
2023/05/10 06:11:49;;;;;;;;;;;;;;;12.23;100.00;100953.19;4977483;28;20320;-70
2023/05/10 06:14:14;;;;;;;;;;;;;;;12.18;100.00;100950.91;4977450;28;20368;-70
2023/05/10 06:16:40;;;;;;;;;;;;;;;12.25;100.00;100956.63;4976673;28;19922;-70
2023/05/10 06:19:05;;;;;;;;;;;;;;;12.32;100.00;100960.50;4976741;28;19980;-71
2023/05/10 06:21:30;;;;;;;;;;;;;;;12.35;100.00;100968.34;4979724;28;19926;-71
2023/05/10 06:23:56;;;;;;;;;;;;;;;12.35;100.00;100957.56;4980441;28;19964;-70
2023/05/10 06:26:21;;;;;;;;;;;;;;;12.24;100.00;100968.38;4980045;28;19925;-70
2023/05/10 06:28:46;;;;;;;;;;;;;;;12.12;100.00;100968.41;4976197;28;19921;-70
2023/05/10 06:31:12;;;;;;;;;;;;;;;12.13;100.00;100969.25;4981876;28;19926;-71
2023/05/10 06:33:37;;;;;;;;;;;;;;;12.16;100.00;100971.69;4980510;28;20439;-70
2023/05/10 06:36:02;;;;;;;;;;;;;;;12.21;100.00;100972.19;4976870;28;19921;-70
2023/05/10 06:38:27;;;;;;;;;;;;;;;12.29;100.00;100977.78;4978307;28;20008;-70
2023/05/10 06:40:53;;;;;;;;;;;;;;;12.42;100.00;100982.13;4976886;28;20112;-70
2023/05/10 06:43:20;;;;;;;;;;;;;;;12.45;100.00;100984.56;4979176;28;20504;-71
2023/05/10 06:45:45;;;;;;;;;;;;;;;12.42;100.00;100974.94;4980038;28;19925;-70
2023/05/10 06:48:10;;;;;;;;;;;;;;;12.49;100.00;100975.25;4977514;28;19922;-70
2023/05/10 06:50:36;;;;;;;;;;;;;;;12.58;100.00;100977.16;4976684;28;19933;-70
2023/05/10 06:53:04;;;;;;;;;;;;;;;12.66;100.00;100978.34;4978751;28;20400;-70
2023/05/10 06:55:29;;;;;;;;;;;;;;;12.71;100.00;100984.22;4983153;28;20017;-70
2023/05/10 06:57:54;;;;;;;;;;;;;;;12.83;100.00;100987.72;4980968;28;20392;-70
2023/05/10 07:00:20;;;;;;;;;;;;;;;12.76;100.00;100982.00;4987759;28;19921;-70
2023/05/10 07:02:45;;;;;;;;;;;;;;;12.87;100.00;100997.25;4978546;28;20187;-70
2023/05/10 07:05:10;;;;;;;;;;;;;;;12.71;100.00;100998.53;4982751;28;20416;-70
2023/05/10 07:07:35;;;;;;;;;;;;;;;12.68;100.00;100996.13;4981353;28;19925;-70
2023/05/10 07:10:01;;;;;;;;;;;;;;;12.76;100.00;101000.84;4979254;28;20639;-70
2023/05/10 07:12:26;;;;;;;;;;;;;;;12.79;100.00;101002.41;4980014;28;19992;-70
2023/05/10 07:14:52;;;;;;;;;;;;;;;12.79;100.00;100999.72;4984865;28;20415;-70
2023/05/10 07:17:17;;;;;;;;;;;;;;;12.82;100.00;100994.94;4980688;28;20726;-70
2023/05/10 07:19:43;;;;;;;;;;;;;;;12.95;100.00;100999.28;4987289;28;19925;-70
2023/05/10 07:22:08;;;;;;;;;;;;;;;12.98;100.00;101001.72;4986492;28;19983;-70
2023/05/10 07:24:33;;;;;;;;;;;;;;;12.97;100.00;101000.88;4984397;28;19983;-70
2023/05/10 07:26:58;;;;;;;;;;;;;;;12.73;100.00;101001.09;4968187;28;20144;-70
2023/05/10 07:29:24;;;;;;;;;;;;;;;12.75;100.00;101008.06;4979071;28;19929;-70
2023/05/10 07:31:49;;;;;;;;;;;;;;;12.70;100.00;101004.94;4986655;28;19975;-70
2023/05/10 07:34:14;;;;;;;;;;;;;;;12.73;100.00;101009.19;4985480;28;20400;-70
2023/05/10 07:36:39;;;;;;;;;;;;;;;12.83;100.00;101012.81;4982261;28;19921;-70
2023/05/10 07:39:05;;;;;;;;;;;;;;;12.96;100.00;101019.84;4982799;28;19921;-70
2023/05/10 07:41:30;;;;;;;;;;;;;;;13.08;100.00;101023.34;4978757;28;19944;-70
2023/05/10 07:43:55;;;;;;;;;;;;;;;13.13;100.00;101023.81;4983093;28;20024;-70
2023/05/10 07:46:20;;;;;;;;;;;;;;;13.11;100.00;101023.91;4982715;28;19921;-70
2023/05/10 07:48:46;;;;;;;;;;;;;;;13.14;100.00;101020.97;4977887;28;20359;-70
2023/05/10 07:51:11;;;;;;;;;;;;;;;13.09;100.00;101025.03;4980857;28;19922;-70
2023/05/10 07:53:37;;;;;;;;;;;;;;;13.22;100.00;101023.03;4979695;28;19929;-70
2023/05/10 07:56:19;;;;;;;;;;;;;;;13.37;100.00;101028.06;4971030;28;19921;-70
2023/05/10 07:58:44;;;;;;;;;;;;;;;13.48;100.00;101030.72;4976122;28;19921;-70
2023/05/10 08:01:10;;;;;;;;;;;;;;;13.51;100.00;101033.13;4976278;28;19960;-70
2023/05/10 08:03:35;;;;;;;;;;;;;;;13.70;100.00;101029.66;4977070;28;20253;-70
2023/05/10 08:06:00;;;;;;;;;;;;;;;13.89;100.00;101028.91;4978218;28;19968;-70
2023/05/10 08:08:26;;;;;;;;;;;;;;;13.89;100.00;101022.66;4962019;28;20352;-70
2023/05/10 08:10:51;;;;;;;;;;;;;;;13.79;100.00;101023.47;4976111;28;20379;-72
2023/05/10 08:13:16;;;;;;;;;;;;;;;13.91;100.00;101026.91;4980174;28;19928;-70
2023/05/10 08:15:41;;;;;;;;;;;;;;;13.91;100.00;101028.75;4981825;28;20276;-70
2023/05/10 08:18:06;;;;;;;;;;;;;;;13.73;100.00;101036.66;4979914;28;20412;-70
2023/05/10 08:20:32;;;;;;;;;;;;;;;13.64;100.00;101039.16;4982294;28;20352;-70
2023/05/10 08:22:57;;;;;;;;;;;;;;;13.56;100.00;101038.97;4982732;28;19937;-70
2023/05/10 08:25:22;;;;;;;;;;;;;;;13.45;100.00;101037.22;4980003;28;20025;-70
2023/05/10 08:27:47;;;;;;;;;;;;;;;13.38;100.00;101043.25;4980972;28;19929;-70
2023/05/10 08:30:13;;;;;;;;;;;;;;;13.35;100.00;101052.47;4966664;28;19922;-70
2023/05/10 08:32:38;;;;;;;;;;;;;;;13.25;100.00;101057.78;4982515;28;19922;-70
2023/05/10 08:35:03;;;;;;;;;;;;;;;13.31;100.00;101062.66;4981296;28;19945;-70
2023/05/10 08:37:32;;;;;;;;;;;;;;;13.23;100.00;101073.25;4979210;28;19969;-70
2023/05/10 08:39:58;;;;;;;;;;;;;;;13.30;100.00;101073.59;4977953;28;20412;-70
2023/05/10 08:42:23;;;;;;;;;;;;;;;13.20;100.00;101068.97;4978212;28;20224;-70
2023/05/10 08:44:48;;;;;;;;;;;;;;;13.21;100.00;101077.94;4985151;28;20100;-70
2023/05/10 08:47:13;;;;;;;;;;;;;;;13.22;100.00;101073.38;4962698;28;19944;-70
2023/05/10 08:49:38;;;;;;;;;;;;;;;13.37;100.00;101069.38;4965076;28;19926;-70
2023/05/10 08:52:05;;;;;;;;;;;;;;;13.50;100.00;101072.75;4982499;28;19921;-70
2023/05/10 08:54:34;;;;;;;;;;;;;;;13.54;100.00;101069.78;4982451;28;19925;-70
2023/05/10 08:56:59;;;;;;;;;;;;;;;13.85;100.00;101072.50;4979944;28;20028;-70
2023/05/10 08:59:24;;;;;;;;;;;;;;;13.99;100.00;101072.13;4979506;28;20365;-70
2023/05/10 09:01:50;;;;;;;;;;;;;;;14.00;100.00;101073.81;4982436;28;19926;-70
2023/05/10 09:04:15;;;;;;;;;;;;;;;13.84;100.00;101079.72;4979651;28;19925;-71
2023/05/10 09:06:40;;;;;;;;;;;;;;;13.91;100.00;101085.44;4984637;28;19929;-71
2023/05/10 09:09:05;;;;;;;;;;;;;;;13.77;100.00;101087.50;4982777;28;19972;-71
2023/05/10 09:11:31;;;;;;;;;;;;;;;13.60;100.00;101085.44;4980922;28;19926;-70
2023/05/10 09:13:56;;;;;;;;;;;;;;;13.53;100.00;101090.50;4964260;28;19926;-70
2023/05/10 09:16:21;;;;;;;;;;;;;;;13.64;100.00;101093.13;4983313;28;19931;-70
2023/05/10 09:18:46;;;;;;;;;;;;;;;13.57;100.00;101091.94;4980632;28;19929;-70
2023/05/10 09:21:12;;;;;;;;;;;;;;;13.58;100.00;101101.75;4983580;28;20444;-70
2023/05/10 09:23:37;;;;;;;;;;;;;;;13.44;100.00;101104.78;4981399;28;19929;-71
2023/05/10 09:26:05;;;;;;;;;;;;;;;13.33;100.00;101103.81;4966809;28;19999;-71
2023/05/10 09:28:50;;;;;;;;;;;;;;;13.39;100.00;101101.59;4963242;28;20012;-70
2023/05/10 09:31:15;;;;;;;;;;;;;;;13.39;100.00;101107.00;4967633;28;19949;-70
2023/05/10 09:33:47;;;;;;;;;;;;;;;13.18;100.00;101108.69;4980177;28;20424;-71
2023/05/10 09:36:13;;;;;;;;;;;;;;;13.17;100.00;101112.38;4980730;28;19925;-71
2023/05/10 09:38:52;;;;;;;;;;;;;;;13.08;100.00;101118.56;4967660;28;19921;-70
2023/05/10 09:41:21;;;;;;;;;;;;;;;13.11;100.00;101122.81;4978173;28;19922;-71
2023/05/10 09:43:46;;;;;;;;;;;;;;;13.10;100.00;101121.09;4982614;28;20199;-70
2023/05/10 09:46:12;;;;;;;;;;;;;;;13.24;100.00;101126.19;4983519;28;19926;-70
2023/05/10 09:48:47;;;;;;;;;;;;;;;13.09;100.00;101131.03;4982084;28;19928;-71
2023/05/10 09:51:19;;;;;;;;;;;;;;;13.26;100.00;101132.28;4980829;28;20428;-71
2023/05/10 09:53:45;;;;;;;;;;;;;;;13.34;100.00;101129.81;4972461;28;19917;-70
2023/05/10 09:56:10;;;;;;;;;;;;;;;13.46;100.00;101133.34;4977199;28;20278;-70
2023/05/10 09:58:37;;;;;;;;;;;;;;;13.54;100.00;101134.53;4981653;28;19936;-70
2023/05/10 10:01:03;;;;;;;;;;;;;;;13.61;100.00;101139.25;4981974;28;19925;-70
2023/05/10 10:03:29;;;;;;;;;;;;;;;13.80;100.00;101135.81;4979258;28;20419;-70
2023/05/10 10:05:55;;;;;;;;;;;;;;;13.93;100.00;101135.59;4978661;28;20102;-70
2023/05/10 10:08:21;;;;;;;;;;;;;;;13.99;100.00;101133.38;4980249;28;19922;-70
2023/05/10 10:10:46;;;;;;;;;;;;;;;14.03;100.00;101127.56;4976140;28;19933;-70
2023/05/10 10:13:11;;;;;;;;;;;;;;;13.84;100.00;101128.31;4978169;28;19960;-70
2023/05/10 10:15:36;;;;;;;;;;;;;;;13.81;100.00;101128.56;4975635;28;19957;-71
2023/05/10 10:18:03;;;;;;;;;;;;;;;13.84;100.00;101133.69;4979118;28;19988;-70
2023/05/10 10:20:28;;;;;;;;;;;;;;;13.82;100.00;101132.13;4979617;28;19922;-71
2023/05/10 10:22:54;;;;;;;;;;;;;;;13.75;100.00;101139.91;4982812;28;19925;-71
2023/05/10 10:25:19;;;;;;;;;;;;;;;13.66;100.00;101136.16;4980479;28;19922;-71
2023/05/10 10:27:51;;;;;;;;;;;;;;;13.71;100.00;101143.88;4980389;28;19945;-71
2023/05/10 10:30:31;;;;;;;;;;;;;;;13.77;100.00;101141.47;4982867;28;19917;-70
2023/05/10 10:33:03;;;;;;;;;;;;;;;13.93;100.00;101142.84;4979803;28;19925;-71
2023/05/10 10:35:29;;;;;;;;;;;;;;;14.03;100.00;101138.34;4973192;28;19921;-71
2023/05/10 10:37:54;;;;;;;;;;;;;;;14.06;100.00;101135.38;4964546;28;20005;-71
2023/05/10 10:40:38;;;;;;;;;;;;;;;14.07;100.00;101120.91;4976903;28;19937;-71
2023/05/10 10:43:22;;;;;;;;;;;;;;;14.01;100.00;101128.69;4976042;28;20072;-71
2023/05/10 10:46:06;;;;;;;;;;;;;;;14.08;100.00;101128.00;4982960;28;20368;-72
2023/05/10 10:48:32;;;;;;;;;;;;;;;14.22;100.00;101131.31;4980149;28;20410;-71
2023/05/10 10:50:57;;;;;;;;;;;;;;;14.36;100.00;101139.06;4978733;28;19921;-71
2023/05/10 10:53:25;;;;;;;;;;;;;;;14.42;100.00;101128.69;4985268;28;20015;-71
2023/05/10 10:55:52;;;;;;;;;;;;;;;14.46;100.00;101127.41;4975684;28;20017;-71
2023/05/10 10:58:33;;;;;;;;;;;;;;;14.63;100.00;101126.75;4975953;28;19922;-71
2023/05/10 11:01:17;;;;;;;;;;;;;;;14.70;100.00;101121.66;4980159;28;19929;-71
2023/05/10 11:04:00;;;;;;;;;;;;;;;14.80;100.00;101124.38;4975422;28;19933;-71
2023/05/10 11:06:33;;;;;;;;;;;;;;;15.04;100.00;101125.81;4972996;28;20369;-71
2023/05/10 11:08:58;;;;;;;;;;;;;;;15.16;100.00;101124.69;4981210;28;19921;-71
2023/05/10 11:11:23;;;;;;;;;;;;;;;15.35;100.00;101125.69;4975326;28;20368;-71
2023/05/10 11:13:49;;;;;;;;;;;;;;;15.38;100.00;101128.94;4978729;28;20324;-71
2023/05/10 11:16:21;;;;;;;;;;;;;;;15.55;100.00;101123.81;4983276;28;19972;-71
2023/05/10 11:19:07;;;;;;;;;;;;;;;15.60;100.00;101124.22;4984234;28;19921;-71
2023/05/10 11:21:32;;;;;;;;;;;;;;;15.76;100.00;101129.00;4982684;28;20364;-71
2023/05/10 11:23:58;;;;;;;;;;;;;;;15.75;100.00;101132.75;4985137;28;19933;-71
2023/05/10 11:26:25;;;;;;;;;;;;;;;15.90;100.00;101135.84;4988519;28;19976;-71
2023/05/10 11:28:51;;;;;;;;;;;;;;;15.33;100.00;101141.19;4983512;28;19984;-71
2023/05/10 11:31:16;;;;;;;;;;;;;;;15.03;100.00;101134.94;4988623;28;19922;-71
2023/05/10 11:33:42;;;;;;;;;;;;;;;15.08;100.00;101135.38;4985584;28;19921;-72
2023/05/10 11:36:10;;;;;;;;;;;;;;;14.98;100.00;101138.06;4986533;28;19925;-72
2023/05/10 11:38:36;;;;;;;;;;;;;;;15.03;100.00;101135.81;4985048;28;19972;-71
2023/05/10 11:41:01;;;;;;;;;;;;;;;15.23;100.00;101139.34;4984234;28;19921;-71
2023/05/10 11:43:27;;;;;;;;;;;;;;;15.56;100.00;101147.16;4984469;28;19972;-71
2023/05/10 11:45:53;;;;;;;;;;;;;;;15.51;100.00;101144.88;4988313;28;20219;-71
2023/05/10 11:48:22;;;;;;;;;;;;;;;15.65;100.00;101145.44;4987816;28;20321;-71
2023/05/10 11:50:47;;;;;;;;;;;;;;;15.46;100.00;101141.78;4987790;28;19964;-71
2023/05/10 11:53:12;;;;;;;;;;;;;;;15.55;100.00;101145.47;4991098;28;20092;-71
2023/05/10 11:55:38;;;;;;;;;;;;;;;15.51;100.00;101144.88;4986642;28;19921;-71
2023/05/10 11:58:03;;;;;;;;;;;;;;;15.34;100.00;101130.25;4991197;28;20052;-72
2023/05/10 12:00:28;;;;;;;;;;;;;;;15.44;100.00;101144.59;4992759;28;20015;-71
2023/05/10 12:02:53;;;;;;;;;;;;;;;15.27;100.00;101135.34;4986315;28;19964;-71
2023/05/10 12:05:19;;;;;;;;;;;;;;;15.36;100.00;101141.75;4993217;28;19922;-71
2023/05/10 12:07:44;;;;;;;;;;;;;;;15.34;100.00;101137.50;4993529;28;20395;-72
2023/05/10 12:10:10;;;;;;;;;;;;;;;15.42;100.00;101138.47;4995885;28;20012;-71
2023/05/10 12:12:42;;;;;;;;;;;;;;;15.61;100.00;101153.00;4985168;28;20576;-70
2023/05/10 12:15:10;;;;;;;;;;;;;;;15.70;100.00;101146.69;4993900;28;19947;-70
2023/05/10 12:17:36;;;;;;;;;;;;;;;15.64;100.00;101154.56;4988347;28;19921;-71
2023/05/10 12:20:15;;;;;;;;;;;;;;;15.70;100.00;101151.28;4990420;28;20269;-71
2023/05/10 12:22:40;;;;;;;;;;;;;;;15.83;100.00;101154.50;4992685;28;19929;-71
2023/05/10 12:25:06;;;;;;;;;;;;;;;15.86;100.00;101153.41;4994181;28;20222;-71